sensor_id;sensor_type;location;lat;lon;timestamp;pressure;altitude;pressure_sealevel;temperature;humidity
19748;BME280;10032;51.386;12.516;2023-05-03T00:00:54;101305.34;;;8.18;100.00
19748;BME280;10032;51.386;12.516;2023-05-03T00:03:20;101312.84;;;8.16;100.00
19748;BME280;10032;51.386;12.516;2023-05-03T00:05:48;101303.69;;;8.11;100.00
19748;BME280;10032;51.386;12.516;2023-05-03T00:08:14;101302.41;;;8.07;100.00
19748;BME280;10032;51.386;12.516;2023-05-03T00:10:40;101299.09;;;8.05;100.00
19748;BME280;10032;51.386;12.516;2023-05-03T00:13:05;101304.09;;;8.01;100.00
19748;BME280;10032;51.386;12.516;2023-05-03T00:15:31;101304.09;;;8.01;100.00
19748;BME280;10032;51.386;12.516;2023-05-03T00:17:56;101305.13;;;8.00;100.00
19748;BME280;10032;51.386;12.516;2023-05-03T00:20:21;101299.94;;;8.05;100.00
19748;BME280;10032;51.386;12.516;2023-05-03T00:22:47;101306.34;;;8.04;100.00
19748;BME280;10032;51.386;12.516;2023-05-03T00:25:12;101303.66;;;8.04;100.00
19748;BME280;10032;51.386;12.516;2023-05-03T00:27:39;101311.13;;;8.02;100.00
19748;BME280;10032;51.386;12.516;2023-05-03T00:30:05;101310.53;;;8.00;100.00
19748;BME280;10032;51.386;12.516;2023-05-03T00:32:30;101305.31;;;7.99;100.00
19748;BME280;10032;51.386;12.516;2023-05-03T00:34:56;101309.47;;;7.95;100.00
19748;BME280;10032;51.386;12.516;2023-05-03T00:37:23;101309.03;;;7.91;100.00
19748;BME280;10032;51.386;12.516;2023-05-03T00:39:48;101296.56;;;7.84;100.00
19748;BME280;10032;51.386;12.516;2023-05-03T00:42:14;101293.84;;;7.77;100.00
19748;BME280;10032;51.386;12.516;2023-05-03T00:44:39;101290.50;;;7.69;100.00
19748;BME280;10032;51.386;12.516;2023-05-03T00:47:05;101291.13;;;7.64;100.00
19748;BME280;10032;51.386;12.516;2023-05-03T00:49:31;101290.47;;;7.62;100.00
19748;BME280;10032;51.386;12.516;2023-05-03T00:51:57;101288.59;;;7.56;100.00
19748;BME280;10032;51.386;12.516;2023-05-03T00:54:26;101295.44;;;7.52;100.00
19748;BME280;10032;51.386;12.516;2023-05-03T00:56:52;101300.19;;;7.50;100.00
19748;BME280;10032;51.386;12.516;2023-05-03T00:59:18;101299.75;;;7.47;100.00
19748;BME280;10032;51.386;12.516;2023-05-03T01:01:47;101303.06;;;7.42;100.00
19748;BME280;10032;51.386;12.516;2023-05-03T01:04:13;101304.31;;;7.40;100.00
19748;BME280;10032;51.386;12.516;2023-05-03T01:06:46;101306.78;;;7.35;100.00
19748;BME280;10032;51.386;12.516;2023-05-03T01:17:35;101293.13;;;7.02;100.00
19748;BME280;10032;51.386;12.516;2023-05-03T01:20:07;101293.53;;;6.99;100.00
19748;BME280;10032;51.386;12.516;2023-05-03T01:22:45;101289.13;;;6.92;100.00
19748;BME280;10032;51.386;12.516;2023-05-03T01:25:14;101293.63;;;6.85;100.00
19748;BME280;10032;51.386;12.516;2023-05-03T01:27:40;101302.50;;;6.79;100.00
19748;BME280;10032;51.386;12.516;2023-05-03T01:30:07;101297.06;;;6.72;100.00
19748;BME280;10032;51.386;12.516;2023-05-03T01:33:02;101300.72;;;6.65;100.00
19748;BME280;10032;51.386;12.516;2023-05-03T01:35:32;101309.59;;;6.59;100.00
19748;BME280;10032;51.386;12.516;2023-05-03T01:38:00;101305.41;;;6.56;100.00
19748;BME280;10032;51.386;12.516;2023-05-03T01:40:27;101310.19;;;6.54;100.00
19748;BME280;10032;51.386;12.516;2023-05-03T01:42:54;101308.72;;;6.52;100.00
19748;BME280;10032;51.386;12.516;2023-05-03T01:45:21;101309.56;;;6.52;100.00
19748;BME280;10032;51.386;12.516;2023-05-03T01:47:46;101301.84;;;6.49;100.00
19748;BME280;10032;51.386;12.516;2023-05-03T01:50:11;101318.00;;;6.49;100.00
19748;BME280;10032;51.386;12.516;2023-05-03T01:52:37;101315.13;;;6.51;100.00
19748;BME280;10032;51.386;12.516;2023-05-03T01:55:03;101314.09;;;6.52;100.00
19748;BME280;10032;51.386;12.516;2023-05-03T01:57:28;101324.69;;;6.53;100.00
19748;BME280;10032;51.386;12.516;2023-05-03T01:59:53;101319.09;;;6.55;100.00
19748;BME280;10032;51.386;12.516;2023-05-03T02:02:19;101318.88;;;6.56;100.00
19748;BME280;10032;51.386;12.516;2023-05-03T02:04:44;101318.63;;;6.51;100.00
19748;BME280;10032;51.386;12.516;2023-05-03T02:07:10;101314.09;;;6.52;100.00
19748;BME280;10032;51.386;12.516;2023-05-03T02:09:35;101307.88;;;6.51;100.00
19748;BME280;10032;51.386;12.516;2023-05-03T02:12:01;101309.94;;;6.49;100.00
19748;BME280;10032;51.386;12.516;2023-05-03T02:14:26;101312.81;;;6.48;100.00
19748;BME280;10032;51.386;12.516;2023-05-03T02:16:51;101312.00;;;6.47;100.00
19748;BME280;10032;51.386;12.516;2023-05-03T02:19:20;101322.09;;;6.45;100.00
19748;BME280;10032;51.386;12.516;2023-05-03T02:21:45;101319.81;;;6.42;100.00
19748;BME280;10032;51.386;12.516;2023-05-03T02:24:10;101323.91;;;6.38;100.00
19748;BME280;10032;51.386;12.516;2023-05-03T02:26:36;101321.59;;;6.35;100.00
19748;BME280;10032;51.386;12.516;2023-05-03T02:29:02;101325.72;;;6.31;100.00
19748;BME280;10032;51.386;12.516;2023-05-03T02:31:27;101333.31;;;6.28;100.00
19748;BME280;10032;51.386;12.516;2023-05-03T02:33:52;101329.56;;;6.22;100.00
19748;BME280;10032;51.386;12.516;2023-05-03T02:36:19;101326.25;;;6.20;100.00
19748;BME280;10032;51.386;12.516;2023-05-03T02:38:46;101323.94;;;6.17;100.00
19748;BME280;10032;51.386;12.516;2023-05-03T02:41:11;101324.28;;;6.14;100.00
19748;BME280;10032;51.386;12.516;2023-05-03T02:43:37;101333.03;;;6.16;100.00
19748;BME280;10032;51.386;12.516;2023-05-03T02:46:02;101335.06;;;6.14;100.00
19748;BME280;10032;51.386;12.516;2023-05-03T02:48:28;101330.72;;;6.13;100.00
19748;BME280;10032;51.386;12.516;2023-05-03T02:50:53;101339.19;;;6.10;100.00
19748;BME280;10032;51.386;12.516;2023-05-03T02:53:19;101339.19;;;6.10;100.00
19748;BME280;10032;51.386;12.516;2023-05-03T02:55:44;101336.50;;;6.10;100.00
19748;BME280;10032;51.386;12.516;2023-05-03T02:58:11;101338.16;;;6.11;100.00
19748;BME280;10032;51.386;12.516;2023-05-03T03:00:36;101336.50;;;6.10;100.00
19748;BME280;10032;51.386;12.516;2023-05-03T03:03:01;101336.09;;;6.13;100.00
19748;BME280;10032;51.386;12.516;2023-05-03T03:05:27;101328.69;;;6.15;100.00
19748;BME280;10032;51.386;12.516;2023-05-03T03:07:53;101329.50;;;6.16;100.00
19748;BME280;10032;51.386;12.516;2023-05-03T03:10:18;101334.31;;;6.20;100.00
19748;BME280;10032;51.386;12.516;2023-05-03T03:12:44;101337.81;;;6.21;100.00
19748;BME280;10032;51.386;12.516;2023-05-03T03:15:10;101342.38;;;6.20;100.00
19748;BME280;10032;51.386;12.516;2023-05-03T03:17:35;101335.97;;;6.21;100.00
19748;BME280;10032;51.386;12.516;2023-05-03T03:20:07;101340.69;;;6.19;100.00
19748;BME280;10032;51.386;12.516;2023-05-03T03:22:37;101342.50;;;6.12;100.00
19748;BME280;10032;51.386;12.516;2023-05-03T03:25:03;101337.13;;;6.12;100.00
19748;BME280;10032;51.386;12.516;2023-05-03T03:27:29;101343.91;;;6.08;100.00
19748;BME280;10032;51.386;12.516;2023-05-03T03:29:54;101356.31;;;6.09;100.00
19748;BME280;10032;51.386;12.516;2023-05-03T03:32:20;101351.34;;;6.06;100.00
19748;BME280;10032;51.386;12.516;2023-05-03T03:34:46;101350.94;;;6.09;100.00
19748;BME280;10032;51.386;12.516;2023-05-03T03:37:11;101356.31;;;6.09;100.00
19748;BME280;10032;51.386;12.516;2023-05-03T03:39:36;101350.13;;;6.09;100.00
19748;BME280;10032;51.386;12.516;2023-05-03T03:42:05;101361.97;;;6.14;100.00
19748;BME280;10032;51.386;12.516;2023-05-03T03:44:30;101359.94;;;6.16;100.00
19748;BME280;10032;51.386;12.516;2023-05-03T03:46:55;101357.25;;;6.16;100.00
19748;BME280;10032;51.386;12.516;2023-05-03T03:49:21;101367.56;;;6.13;100.00
19748;BME280;10032;51.386;12.516;2023-05-03T03:51:46;101361.69;;;6.09;100.00
19748;BME280;10032;51.386;12.516;2023-05-03T03:54:12;101361.69;;;6.09;100.00
19748;BME280;10032;51.386;12.516;2023-05-03T03:56:38;101363.38;;;6.10;100.00
19748;BME280;10032;51.386;12.516;2023-05-03T03:59:04;101372.16;;;6.19;100.00
19748;BME280;10032;51.386;12.516;2023-05-03T04:01:29;101365.94;;;6.18;100.00
19748;BME280;10032;51.386;12.516;2023-05-03T04:03:55;101375.50;;;6.21;100.00
19748;BME280;10032;51.386;12.516;2023-05-03T04:06:20;101375.50;;;6.21;100.00
19748;BME280;10032;51.386;12.516;2023-05-03T04:08:46;101381.13;;;6.26;100.00
19748;BME280;10032;51.386;12.516;2023-05-03T04:11:11;101387.63;;;6.31;100.00
19748;BME280;10032;51.386;12.516;2023-05-03T04:13:37;101393.03;;;6.38;100.00
19748;BME280;10032;51.386;12.516;2023-05-03T04:16:04;101396.00;;;6.43;100.00
19748;BME280;10032;51.386;12.516;2023-05-03T04:18:30;101398.91;;;6.41;100.00
19748;BME280;10032;51.386;12.516;2023-05-03T04:20:55;101397.69;;;6.44;100.00
19748;BME280;10032;51.386;12.516;2023-05-03T04:23:21;101393.56;;;6.48;100.00
19748;BME280;10032;51.386;12.516;2023-05-03T04:25:46;101404.50;;;6.46;100.00
19748;BME280;10032;51.386;12.516;2023-05-03T04:28:12;101404.78;;;6.51;100.00
19748;BME280;10032;51.386;12.516;2023-05-03T04:30:38;101407.22;;;6.46;100.00
19748;BME280;10032;51.386;12.516;2023-05-03T04:33:03;101406.13;;;6.62;100.00
19748;BME280;10032;51.386;12.516;2023-05-03T04:35:29;101414.97;;;6.77;100.00
19748;BME280;10032;51.386;12.516;2023-05-03T04:37:55;101405.53;;;7.49;100.00
19748;BME280;10032;51.386;12.516;2023-05-03T04:40:21;101412.16;;;8.27;100.00
19748;BME280;10032;51.386;12.516;2023-05-03T04:42:46;101422.72;;;8.22;100.00
19748;BME280;10032;51.386;12.516;2023-05-03T04:45:11;101424.97;;;8.19;100.00
19748;BME280;10032;51.386;12.516;2023-05-03T04:47:38;101421.63;;;8.17;100.00
19748;BME280;10032;51.386;12.516;2023-05-03T04:50:05;101427.59;;;8.06;100.00
19748;BME280;10032;51.386;12.516;2023-05-03T04:52:32;101427.72;;;8.32;100.00
19748;BME280;10032;51.386;12.516;2023-05-03T04:54:57;101418.03;;;8.57;100.00
19748;BME280;10032;51.386;12.516;2023-05-03T04:57:22;101424.69;;;8.93;100.00
19748;BME280;10032;51.386;12.516;2023-05-03T04:59:48;101425.13;;;9.03;100.00
19748;BME280;10032;51.386;12.516;2023-05-03T05:02:14;101429.50;;;9.17;100.00
19748;BME280;10032;51.386;12.516;2023-05-03T05:04:39;101424.66;;;9.45;100.00
19748;BME280;10032;51.386;12.516;2023-05-03T05:07:05;101427.34;;;9.52;100.00
19748;BME280;10032;51.386;12.516;2023-05-03T05:09:30;101428.69;;;9.87;100.00
19748;BME280;10032;51.386;12.516;2023-05-03T05:11:56;101431.59;;;10.05;100.00
19748;BME280;10032;51.386;12.516;2023-05-03T05:14:21;101423.75;;;10.34;100.00
19748;BME280;10032;51.386;12.516;2023-05-03T05:16:47;101423.31;;;10.68;100.00
19748;BME280;10032;51.386;12.516;2023-05-03T05:19:12;101426.09;;;10.86;100.00
19748;BME280;10032;51.386;12.516;2023-05-03T05:21:38;101432.75;;;10.90;100.00
19748;BME280;10032;51.386;12.516;2023-05-03T05:24:04;101429.81;;;10.92;100.00
19748;BME280;10032;51.386;12.516;2023-05-03T05:26:29;101430.94;;;11.09;100.00
19748;BME280;10032;51.386;12.516;2023-05-03T05:28:55;101436.25;;;10.97;100.00
19748;BME280;10032;51.386;12.516;2023-05-03T05:31:20;101437.28;;;11.21;100.00
19748;BME280;10032;51.386;12.516;2023-05-03T05:33:46;101432.03;;;11.01;100.00
19748;BME280;10032;51.386;12.516;2023-05-03T05:36:12;101431.06;;;10.89;100.00
19748;BME280;10032;51.386;12.516;2023-05-03T05:38:38;101434.28;;;11.04;100.00
19748;BME280;10032;51.386;12.516;2023-05-03T05:41:03;101439.78;;;11.22;100.00
19748;BME280;10032;51.386;12.516;2023-05-03T05:43:29;101446.16;;;11.52;100.00
19748;BME280;10032;51.386;12.516;2023-05-03T05:45:54;101442.44;;;11.53;100.00
19748;BME280;10032;51.386;12.516;2023-05-03T05:48:20;101439.47;;;11.55;100.00
19748;BME280;10032;51.386;12.516;2023-05-03T05:50:46;101438.38;;;11.62;100.00
19748;BME280;10032;51.386;12.516;2023-05-03T05:53:11;101441.50;;;11.84;100.00
19748;BME280;10032;51.386;12.516;2023-05-03T05:55:36;101444.28;;;12.13;100.00
19748;BME280;10032;51.386;12.516;2023-05-03T05:58:02;101435.56;;;12.41;100.00
19748;BME280;10032;51.386;12.516;2023-05-03T06:00:28;101441.13;;;12.75;100.00
19748;BME280;10032;51.386;12.516;2023-05-03T06:02:54;101447.59;;;12.45;100.00
19748;BME280;10032;51.386;12.516;2023-05-03T06:05:19;101448.31;;;12.40;100.00
19748;BME280;10032;51.386;12.516;2023-05-03T06:07:45;101447.13;;;12.77;100.00
19748;BME280;10032;51.386;12.516;2023-05-03T06:10:11;101442.41;;;12.73;99.47
19748;BME280;10032;51.386;12.516;2023-05-03T06:12:36;101443.34;;;12.96;100.00
19748;BME280;10032;51.386;12.516;2023-05-03T06:15:03;101451.91;;;12.93;98.94
19748;BME280;10032;51.386;12.516;2023-05-03T06:17:28;101454.47;;;13.06;99.13
19748;BME280;10032;51.386;12.516;2023-05-03T06:19:53;101462.38;;;13.08;98.37
19748;BME280;10032;51.386;12.516;2023-05-03T06:22:19;101450.91;;;13.06;97.12
19748;BME280;10032;51.386;12.516;2023-05-03T06:24:44;101448.22;;;13.17;98.06
19748;BME280;10032;51.386;12.516;2023-05-03T06:27:10;101443.94;;;13.21;96.02
19748;BME280;10032;51.386;12.516;2023-05-03T06:29:35;101450.59;;;13.48;93.67
19748;BME280;10032;51.386;12.516;2023-05-03T06:32:01;101455.00;;;13.49;92.01
19748;BME280;10032;51.386;12.516;2023-05-03T06:34:26;101453.44;;;13.76;91.82
19748;BME280;10032;51.386;12.516;2023-05-03T06:36:52;101458.06;;;13.64;90.84
19748;BME280;10032;51.386;12.516;2023-05-03T06:39:17;101452.81;;;13.97;91.28
19748;BME280;10032;51.386;12.516;2023-05-03T06:41:43;101453.78;;;13.91;88.75
19748;BME280;10032;51.386;12.516;2023-05-03T06:44:09;101453.28;;;13.94;88.61
19748;BME280;10032;51.386;12.516;2023-05-03T06:46:34;101449.69;;;14.05;88.89
19748;BME280;10032;51.386;12.516;2023-05-03T06:49:00;101461.44;;;13.94;84.96
19748;BME280;10032;51.386;12.516;2023-05-03T06:51:26;101455.16;;;14.05;83.94
19748;BME280;10032;51.386;12.516;2023-05-03T06:53:54;101460.47;;;14.12;85.78
19748;BME280;10032;51.386;12.516;2023-05-03T06:56:24;101455.06;;;14.51;83.76
19748;BME280;10032;51.386;12.516;2023-05-03T06:58:50;101456.69;;;14.52;82.74
19748;BME280;10032;51.386;12.516;2023-05-03T07:01:16;101452.53;;;14.33;82.61
19748;BME280;10032;51.386;12.516;2023-05-03T07:03:43;101455.25;;;14.61;82.28
19748;BME280;10032;51.386;12.516;2023-05-03T07:06:08;101453.94;;;14.80;82.16
19748;BME280;10032;51.386;12.516;2023-05-03T07:08:34;101450.19;;;14.81;78.09
19748;BME280;10032;51.386;12.516;2023-05-03T07:10:59;101456.78;;;14.85;80.58
19748;BME280;10032;51.386;12.516;2023-05-03T07:13:25;101456.28;;;14.32;75.00
19748;BME280;10032;51.386;12.516;2023-05-03T07:15:50;101450.38;;;14.35;77.52
19748;BME280;10032;51.386;12.516;2023-05-03T07:18:15;101457.47;;;14.36;76.83
19748;BME280;10032;51.386;12.516;2023-05-03T07:20:41;101454.75;;;14.64;76.39
19748;BME280;10032;51.386;12.516;2023-05-03T07:23:06;101455.72;;;14.58;76.08
19748;BME280;10032;51.386;12.516;2023-05-03T07:25:32;101453.09;;;14.35;76.62
19748;BME280;10032;51.386;12.516;2023-05-03T07:27:58;101455.94;;;14.40;78.34
19748;BME280;10032;51.386;12.516;2023-05-03T07:30:23;101455.78;;;14.47;76.32
19748;BME280;10032;51.386;12.516;2023-05-03T07:32:49;101452.03;;;14.36;74.84
19748;BME280;10032;51.386;12.516;2023-05-03T07:35:15;101457.03;;;14.56;76.44
19748;BME280;10032;51.386;12.516;2023-05-03T07:37:41;101454.41;;;14.61;76.66
19748;BME280;10032;51.386;12.516;2023-05-03T07:40:07;101451.63;;;14.72;75.43
19748;BME280;10032;51.386;12.516;2023-05-03T07:42:34;101448.34;;;14.70;72.75
19748;BME280;10032;51.386;12.516;2023-05-03T07:45:00;101447.06;;;14.61;70.47
19748;BME280;10032;51.386;12.516;2023-05-03T07:47:26;101458.06;;;14.38;71.23
19748;BME280;10032;51.386;12.516;2023-05-03T07:49:52;101450.66;;;14.78;73.16
19748;BME280;10032;51.386;12.516;2023-05-03T07:52:17;101447.53;;;15.03;73.37
19748;BME280;10032;51.386;12.516;2023-05-03T07:54:43;101437.66;;;14.85;72.71
19748;BME280;10032;51.386;12.516;2023-05-03T07:57:13;101442.31;;;15.01;71.19
19748;BME280;10032;51.386;12.516;2023-05-03T07:59:40;101433.81;;;15.14;71.34
19748;BME280;10032;51.386;12.516;2023-05-03T08:02:06;101445.50;;;14.65;68.52
19748;BME280;10032;51.386;12.516;2023-05-03T08:04:31;101438.88;;;14.61;70.33
19748;BME280;10032;51.386;12.516;2023-05-03T08:07:01;101432.09;;;15.08;70.86
19748;BME280;10032;51.386;12.516;2023-05-03T08:09:27;101440.84;;;14.94;65.44
19748;BME280;10032;51.386;12.516;2023-05-03T08:11:53;101437.09;;;14.83;66.48
19748;BME280;10032;51.386;12.516;2023-05-03T08:14:18;101443.41;;;14.56;65.24
19748;BME280;10032;51.386;12.516;2023-05-03T08:16:44;101443.13;;;14.69;64.28
19748;BME280;10032;51.386;12.516;2023-05-03T08:19:10;101440.66;;;14.56;65.16
19748;BME280;10032;51.386;12.516;2023-05-03T08:21:36;101436.88;;;14.85;66.17
19748;BME280;10032;51.386;12.516;2023-05-03T08:24:01;101439.25;;;14.81;63.10
19748;BME280;10032;51.386;12.516;2023-05-03T08:26:27;101444.28;;;14.73;63.63
19748;BME280;10032;51.386;12.516;2023-05-03T08:28:54;101439.94;;;15.05;65.06
19748;BME280;10032;51.386;12.516;2023-05-03T08:31:19;101442.59;;;15.16;64.20
19748;BME280;10032;51.386;12.516;2023-05-03T08:33:45;101437.56;;;14.80;63.46
19748;BME280;10032;51.386;12.516;2023-05-03T08:36:10;101437.63;;;15.13;64.03
19748;BME280;10032;51.386;12.516;2023-05-03T08:38:35;101435.97;;;15.29;63.87
19748;BME280;10032;51.386;12.516;2023-05-03T08:41:16;101434.00;;;15.41;62.95
19748;BME280;10032;51.386;12.516;2023-05-03T08:43:44;101430.00;;;15.65;63.27
19748;BME280;10032;51.386;12.516;2023-05-03T08:46:11;101440.91;;;15.81;60.77
19748;BME280;10032;51.386;12.516;2023-05-03T08:48:37;101438.25;;;15.86;60.86
19748;BME280;10032;51.386;12.516;2023-05-03T08:51:04;101443.34;;;15.28;59.46
19748;BME280;10032;51.386;12.516;2023-05-03T08:53:30;101444.00;;;15.02;59.32
19748;BME280;10032;51.386;12.516;2023-05-03T08:55:56;101440.09;;;14.98;60.31
19748;BME280;10032;51.386;12.516;2023-05-03T08:58:21;101437.94;;;15.00;58.26
19748;BME280;10032;51.386;12.516;2023-05-03T09:00:47;101435.97;;;14.96;59.31
19748;BME280;10032;51.386;12.516;2023-05-03T09:03:12;101433.66;;;14.60;57.65
19748;BME280;10032;51.386;12.516;2023-05-03T09:05:38;101441.94;;;15.09;59.37
19748;BME280;10032;51.386;12.516;2023-05-03T09:08:08;101444.59;;;15.70;60.07
19748;BME280;10032;51.386;12.516;2023-05-03T09:10:41;101438.53;;;15.68;58.82
19748;BME280;10032;51.386;12.516;2023-05-03T09:13:08;101445.53;;;15.81;56.48
19748;BME280;10032;51.386;12.516;2023-05-03T09:15:34;101436.72;;;15.95;57.10
19748;BME280;10032;51.386;12.516;2023-05-03T09:18:09;101444.03;;;16.11;57.57
19748;BME280;10032;51.386;12.516;2023-05-03T09:20:37;101445.44;;;16.35;56.99
19748;BME280;10032;51.386;12.516;2023-05-03T09:23:05;101429.28;;;16.55;57.27
19748;BME280;10032;51.386;12.516;2023-05-03T09:25:47;101435.31;;;16.57;56.48
19748;BME280;10032;51.386;12.516;2023-05-03T09:28:14;101436.13;;;16.84;56.89
19748;BME280;10032;51.386;12.516;2023-05-03T09:30:40;101430.84;;;17.04;56.75
19748;BME280;10032;51.386;12.516;2023-05-03T09:33:06;101433.25;;;16.69;54.67
19748;BME280;10032;51.386;12.516;2023-05-03T09:35:32;101429.47;;;16.75;53.94
19748;BME280;10032;51.386;12.516;2023-05-03T09:37:58;101428.59;;;16.43;52.69
19748;BME280;10032;51.386;12.516;2023-05-03T09:40:25;101424.97;;;16.91;54.15
19748;BME280;10032;51.386;12.516;2023-05-03T09:43:10;101421.56;;;17.05;54.42
19748;BME280;10032;51.386;12.516;2023-05-03T09:45:37;101422.44;;;17.11;53.76
19748;BME280;10032;51.386;12.516;2023-05-03T09:48:04;101420.59;;;17.53;54.75
19748;BME280;10032;51.386;12.516;2023-05-03T09:50:34;101412.16;;;17.64;53.07
19748;BME280;10032;51.386;12.516;2023-05-03T09:53:02;101423.44;;;17.36;51.93
19748;BME280;10032;51.386;12.516;2023-05-03T09:55:32;101421.59;;;17.10;52.32
19748;BME280;10032;51.386;12.516;2023-05-03T09:57:59;101415.31;;;17.15;52.30
19748;BME280;10032;51.386;12.516;2023-05-03T10:00:25;101410.47;;;16.90;49.98
19748;BME280;10032;51.386;12.516;2023-05-03T10:02:53;101412.69;;;17.30;50.66
19748;BME280;10032;51.386;12.516;2023-05-03T10:05:22;101415.81;;;17.38;51.00
19748;BME280;10032;51.386;12.516;2023-05-03T10:07:51;101416.44;;;17.45;50.79
19748;BME280;10032;51.386;12.516;2023-05-03T10:10:19;101413.25;;;17.63;49.68
19748;BME280;10032;51.386;12.516;2023-05-03T10:12:46;101404.00;;;17.79;51.40
19748;BME280;10032;51.386;12.516;2023-05-03T10:15:12;101413.19;;;18.10;51.22
19748;BME280;10032;51.386;12.516;2023-05-03T10:17:41;101392.78;;;18.47;51.44
19748;BME280;10032;51.386;12.516;2023-05-03T10:20:26;101392.81;;;18.62;49.77
19748;BME280;10032;51.386;12.516;2023-05-03T10:25:31;101407.06;;;18.49;49.32
19748;BME280;10032;51.386;12.516;2023-05-03T10:28:07;101399.94;;;17.40;49.21
19748;BME280;10032;51.386;12.516;2023-05-03T10:30:39;101406.41;;;17.29;49.44
19748;BME280;10032;51.386;12.516;2023-05-03T10:35:39;101404.22;;;17.63;50.80
19748;BME280;10032;51.386;12.516;2023-05-03T10:38:15;101397.28;;;18.07;50.93
19748;BME280;10032;51.386;12.516;2023-05-03T10:40:42;101396.53;;;18.21;49.96
19748;BME280;10032;51.386;12.516;2023-05-03T10:48:23;101394.50;;;18.78;47.67
19748;BME280;10032;51.386;12.516;2023-05-03T10:50:49;101397.78;;;18.80;48.14
19748;BME280;10032;51.386;12.516;2023-05-03T10:53:37;101397.53;;;18.92;47.98
19748;BME280;10032;51.386;12.516;2023-05-03T10:56:09;101395.59;;;18.87;46.93
19748;BME280;10032;51.386;12.516;2023-05-03T10:58:38;101397.81;;;19.45;47.81
19748;BME280;10032;51.386;12.516;2023-05-03T11:01:08;101394.53;;;19.13;46.73
19748;BME280;10032;51.386;12.516;2023-05-03T11:06:32;101389.81;;;18.59;47.23
19748;BME280;10032;51.386;12.516;2023-05-03T11:09:00;101390.13;;;18.82;47.28
19748;BME280;10032;51.386;12.516;2023-05-03T11:11:26;101393.94;;;18.61;44.78
19748;BME280;10032;51.386;12.516;2023-05-03T11:13:52;101392.28;;;18.75;47.01
19748;BME280;10032;51.386;12.516;2023-05-03T11:16:18;101391.75;;;18.93;46.42
19748;BME280;10032;51.386;12.516;2023-05-03T11:18:44;101392.81;;;18.52;46.22
19748;BME280;10032;51.386;12.516;2023-05-03T11:21:11;101398.75;;;18.24;45.35
19748;BME280;10032;51.386;12.516;2023-05-03T11:23:40;101392.66;;;18.17;46.40
19748;BME280;10032;51.386;12.516;2023-05-03T11:26:06;101387.81;;;18.34;46.00
19748;BME280;10032;51.386;12.516;2023-05-03T11:28:31;101379.47;;;18.04;45.46
19748;BME280;10032;51.386;12.516;2023-05-03T11:30:57;101386.69;;;18.30;45.74
19748;BME280;10032;51.386;12.516;2023-05-03T11:33:23;101390.88;;;18.43;44.88
19748;BME280;10032;51.386;12.516;2023-05-03T11:35:48;101384.63;;;18.77;45.20
19748;BME280;10032;51.386;12.516;2023-05-03T11:38:14;101381.03;;;19.17;46.01
19748;BME280;10032;51.386;12.516;2023-05-03T11:40:39;101380.75;;;19.43;44.84
19748;BME280;10032;51.386;12.516;2023-05-03T11:43:05;101379.63;;;19.49;44.07
19748;BME280;10032;51.386;12.516;2023-05-03T11:45:38;101385.72;;;18.76;43.55
19748;BME280;10032;51.386;12.516;2023-05-03T11:48:05;101379.06;;;18.42;44.52
19748;BME280;10032;51.386;12.516;2023-05-03T11:50:48;101378.03;;;17.92;44.60
19748;BME280;10032;51.386;12.516;2023-05-03T11:53:22;101383.69;;;17.75;45.24
19748;BME280;10032;51.386;12.516;2023-05-03T11:55:50;101377.34;;;18.31;45.73
19748;BME280;10032;51.386;12.516;2023-05-03T11:58:20;101370.28;;;18.65;45.71
19748;BME280;10032;51.386;12.516;2023-05-03T12:00:54;101375.81;;;18.80;44.28
19748;BME280;10032;51.386;12.516;2023-05-03T12:05:48;101375.81;;;19.10;44.98
19748;BME280;10032;51.386;12.516;2023-05-03T12:08:13;101379.09;;;19.07;44.84
19748;BME280;10032;51.386;12.516;2023-05-03T12:10:40;101372.22;;;19.15;44.98
19748;BME280;10032;51.386;12.516;2023-05-03T12:13:06;101376.94;;;19.14;45.03
19748;BME280;10032;51.386;12.516;2023-05-03T12:15:35;101385.19;;;19.24;45.41
19748;BME280;10032;51.386;12.516;2023-05-03T12:18:04;101373.34;;;19.19;44.64
19748;BME280;10032;51.386;12.516;2023-05-03T12:20:30;101377.19;;;19.18;45.36
19748;BME280;10032;51.386;12.516;2023-05-03T12:23:00;101370.31;;;19.40;44.90
19748;BME280;10032;51.386;12.516;2023-05-03T12:25:27;101366.69;;;19.65;45.40
19748;BME280;10032;51.386;12.516;2023-05-03T12:27:53;101372.41;;;19.83;44.98
19748;BME280;10032;51.386;12.516;2023-05-03T12:30:19;101362.84;;;19.66;44.89
19748;BME280;10032;51.386;12.516;2023-05-03T12:32:45;101368.94;;;19.13;43.29
19748;BME280;10032;51.386;12.516;2023-05-03T12:35:11;101358.81;;;18.93;43.07
19748;BME280;10032;51.386;12.516;2023-05-03T12:37:36;101358.81;;;18.98;43.06
19748;BME280;10032;51.386;12.516;2023-05-03T12:40:03;101361.50;;;19.48;43.75
19748;BME280;10032;51.386;12.516;2023-05-03T12:42:28;101360.34;;;19.69;42.81
19748;BME280;10032;51.386;12.516;2023-05-03T12:44:58;101361.53;;;19.23;42.18
19748;BME280;10032;51.386;12.516;2023-05-03T12:47:24;101348.34;;;19.30;42.36
19748;BME280;10032;51.386;12.516;2023-05-03T12:49:51;101350.84;;;19.27;42.06
19748;BME280;10032;51.386;12.516;2023-05-03T12:52:16;101348.09;;;18.92;42.23
19748;BME280;10032;51.386;12.516;2023-05-03T12:54:42;101345.59;;;19.00;42.76
19748;BME280;10032;51.386;12.516;2023-05-03T12:57:08;101347.81;;;18.98;42.81
19748;BME280;10032;51.386;12.516;2023-05-03T12:59:35;101341.75;;;19.36;41.94